sensor_id;sensor_type;location;lat;lon;timestamp;P1;P2;P0
43479;PMS5003;29067;35.492;-97.520;2023-08-06T00:11:38;1;1;
43479;PMS5003;29067;35.492;-97.520;2023-08-06T00:14:05;1;1;
43479;PMS5003;29067;35.492;-97.520;2023-08-06T00:16:34;1;1;
43479;PMS5003;29067;35.492;-97.520;2023-08-06T00:19:02;2;2;
43479;PMS5003;29067;35.492;-97.520;2023-08-06T00:21:30;1;1;
43479;PMS5003;29067;35.492;-97.520;2023-08-06T00:23:59;1;1;
43479;PMS5003;29067;35.492;-97.520;2023-08-06T00:26:27;1;1;
43479;PMS5003;29067;35.492;-97.520;2023-08-06T00:28:55;1;1;
43479;PMS5003;29067;35.492;-97.520;2023-08-06T00:31:24;2;2;
43479;PMS5003;29067;35.492;-97.520;2023-08-06T00:33:52;1;1;
43479;PMS5003;29067;35.492;-97.520;2023-08-06T00:36:20;1;1;
43479;PMS5003;29067;35.492;-97.520;2023-08-06T00:38:48;1;1;
43479;PMS5003;29067;35.492;-97.520;2023-08-06T00:41:17;0;0;
43479;PMS5003;29067;35.492;-97.520;2023-08-06T00:43:45;0;0;
43479;PMS5003;29067;35.492;-97.520;2023-08-06T00:46:14;1;1;
43479;PMS5003;29067;35.492;-97.520;2023-08-06T00:48:47;1;1;
43479;PMS5003;29067;35.492;-97.520;2023-08-06T00:51:15;3;2;
43479;PMS5003;29067;35.492;-97.520;2023-08-06T00:53:44;1;1;
43479;PMS5003;29067;35.492;-97.520;2023-08-06T00:56:13;1;1;
43479;PMS5003;29067;35.492;-97.520;2023-08-06T00:58:41;2;2;
43479;PMS5003;29067;35.492;-97.520;2023-08-06T01:01:10;1;1;
43479;PMS5003;29067;35.492;-97.520;2023-08-06T01:03:39;1;1;
43479;PMS5003;29067;35.492;-97.520;2023-08-06T01:06:07;0;0;
43479;PMS5003;29067;35.492;-97.520;2023-08-06T01:08:39;1;1;
43479;PMS5003;29067;35.492;-97.520;2023-08-06T01:11:19;0;0;
43479;PMS5003;29067;35.492;-97.520;2023-08-06T01:13:59;2;2;
43479;PMS5003;29067;35.492;-97.520;2023-08-06T01:16:33;2;2;
43479;PMS5003;29067;35.492;-97.520;2023-08-06T01:19:02;1;1;
43479;PMS5003;29067;35.492;-97.520;2023-08-06T01:21:30;1;1;
43479;PMS5003;29067;35.492;-97.520;2023-08-06T01:23:58;1;1;
43479;PMS5003;29067;35.492;-97.520;2023-08-06T01:26:29;1;1;
43479;PMS5003;29067;35.492;-97.520;2023-08-06T01:29:04;1;1;
43479;PMS5003;29067;35.492;-97.520;2023-08-06T01:31:38;1;1;
43479;PMS5003;29067;35.492;-97.520;2023-08-06T01:34:13;1;1;
43479;PMS5003;29067;35.492;-97.520;2023-08-06T01:36:43;2;2;
43479;PMS5003;29067;35.492;-97.520;2023-08-06T01:39:13;2;2;
43479;PMS5003;29067;35.492;-97.520;2023-08-06T01:41:41;0;0;
43479;PMS5003;29067;35.492;-97.520;2023-08-06T01:44:09;1;1;
43479;PMS5003;29067;35.492;-97.520;2023-08-06T01:46:38;3;2;
43479;PMS5003;29067;35.492;-97.520;2023-08-06T01:49:06;1;1;
43479;PMS5003;29067;35.492;-97.520;2023-08-06T01:51:39;1;1;
43479;PMS5003;29067;35.492;-97.520;2023-08-06T01:54:07;1;1;
43479;PMS5003;29067;35.492;-97.520;2023-08-06T01:56:35;0;0;
43479;PMS5003;29067;35.492;-97.520;2023-08-06T01:59:04;1;0;
43479;PMS5003;29067;35.492;-97.520;2023-08-06T02:01:32;2;2;
43479;PMS5003;29067;35.492;-97.520;2023-08-06T02:04:00;2;2;
43479;PMS5003;29067;35.492;-97.520;2023-08-06T02:06:29;2;2;
43479;PMS5003;29067;35.492;-97.520;2023-08-06T02:08:57;1;1;
43479;PMS5003;29067;35.492;-97.520;2023-08-06T02:11:25;2;2;
43479;PMS5003;29067;35.492;-97.520;2023-08-06T02:13:53;2;1;
43479;PMS5003;29067;35.492;-97.520;2023-08-06T02:16:27;2;2;
43479;PMS5003;29067;35.492;-97.520;2023-08-06T02:18:55;1;1;
43479;PMS5003;29067;35.492;-97.520;2023-08-06T02:21:23;4;2;
43479;PMS5003;29067;35.492;-97.520;2023-08-06T02:23:53;5;5;
43479;PMS5003;29067;35.492;-97.520;2023-08-06T02:26:21;29;28;
43479;PMS5003;29067;35.492;-97.520;2023-08-06T02:28:49;31;30;
43479;PMS5003;29067;35.492;-97.520;2023-08-06T02:31:27;2;2;
43479;PMS5003;29067;35.492;-97.520;2023-08-06T02:33:55;1;1;
43479;PMS5003;29067;35.492;-97.520;2023-08-06T02:36:23;2;2;
43479;PMS5003;29067;35.492;-97.520;2023-08-06T02:38:57;0;0;
43479;PMS5003;29067;35.492;-97.520;2023-08-06T02:41:26;0;0;
43479;PMS5003;29067;35.492;-97.520;2023-08-06T02:43:54;2;2;
43479;PMS5003;29067;35.492;-97.520;2023-08-06T02:46:23;3;2;
43479;PMS5003;29067;35.492;-97.520;2023-08-06T02:48:51;2;2;
43479;PMS5003;29067;35.492;-97.520;2023-08-06T02:51:24;2;2;
43479;PMS5003;29067;35.492;-97.520;2023-08-06T02:53:53;0;0;
43479;PMS5003;29067;35.492;-97.520;2023-08-06T02:56:21;2;2;
43479;PMS5003;29067;35.492;-97.520;2023-08-06T02:58:49;3;3;
43479;PMS5003;29067;35.492;-97.520;2023-08-06T03:01:23;2;2;
43479;PMS5003;29067;35.492;-97.520;2023-08-06T03:03:55;2;2;
43479;PMS5003;29067;35.492;-97.520;2023-08-06T03:06:23;3;3;
43479;PMS5003;29067;35.492;-97.520;2023-08-06T03:08:56;1;1;
43479;PMS5003;29067;35.492;-97.520;2023-08-06T03:11:24;2;2;
43479;PMS5003;29067;35.492;-97.520;2023-08-06T03:13:53;1;1;
43479;PMS5003;29067;35.492;-97.520;2023-08-06T03:16:21;3;3;
43479;PMS5003;29067;35.492;-97.520;2023-08-06T03:18:49;5;4;
43479;PMS5003;29067;35.492;-97.520;2023-08-06T03:21:23;3;3;
43479;PMS5003;29067;35.492;-97.520;2023-08-06T03:23:55;4;4;
43479;PMS5003;29067;35.492;-97.520;2023-08-06T03:26:30;3;2;
43479;PMS5003;29067;35.492;-97.520;2023-08-06T03:29:02;3;2;
43479;PMS5003;29067;35.492;-97.520;2023-08-06T03:31:32;4;3;
43479;PMS5003;29067;35.492;-97.520;2023-08-06T03:34:00;2;2;
43479;PMS5003;29067;35.492;-97.520;2023-08-06T03:36:29;4;4;
43479;PMS5003;29067;35.492;-97.520;2023-08-06T03:38:58;3;2;
43479;PMS5003;29067;35.492;-97.520;2023-08-06T03:41:26;3;2;
43479;PMS5003;29067;35.492;-97.520;2023-08-06T03:43:54;3;2;
43479;PMS5003;29067;35.492;-97.520;2023-08-06T03:46:23;4;4;
43479;PMS5003;29067;35.492;-97.520;2023-08-06T03:48:51;4;4;
43479;PMS5003;29067;35.492;-97.520;2023-08-06T03:51:19;5;3;
43479;PMS5003;29067;35.492;-97.520;2023-08-06T03:53:52;3;3;
43479;PMS5003;29067;35.492;-97.520;2023-08-06T03:56:20;2;1;
43479;PMS5003;29067;35.492;-97.520;2023-08-06T03:58:49;3;3;
43479;PMS5003;29067;35.492;-97.520;2023-08-06T04:01:17;4;3;
43479;PMS5003;29067;35.492;-97.520;2023-08-06T04:03:50;3;3;
43479;PMS5003;29067;35.492;-97.520;2023-08-06T04:06:18;2;2;
43479;PMS5003;29067;35.492;-97.520;2023-08-06T04:08:47;6;5;
43479;PMS5003;29067;35.492;-97.520;2023-08-06T04:11:15;4;4;
43479;PMS5003;29067;35.492;-97.520;2023-08-06T04:13:43;4;3;
43479;PMS5003;29067;35.492;-97.520;2023-08-06T04:16:17;4;4;
43479;PMS5003;29067;35.492;-97.520;2023-08-06T04:18:45;4;4;
43479;PMS5003;29067;35.492;-97.520;2023-08-06T04:21:13;4;4;
43479;PMS5003;29067;35.492;-97.520;2023-08-06T04:23:42;3;3;
43479;PMS5003;29067;35.492;-97.520;2023-08-06T04:26:15;3;3;
43479;PMS5003;29067;35.492;-97.520;2023-08-06T04:28:43;5;5;
43479;PMS5003;29067;35.492;-97.520;2023-08-06T04:31:13;3;3;
43479;PMS5003;29067;35.492;-97.520;2023-08-06T04:33:41;3;3;
43479;PMS5003;29067;35.492;-97.520;2023-08-06T04:36:11;4;3;
43479;PMS5003;29067;35.492;-97.520;2023-08-06T04:38:39;6;4;
43479;PMS5003;29067;35.492;-97.520;2023-08-06T04:41:07;5;4;
43479;PMS5003;29067;35.492;-97.520;2023-08-06T04:43:36;2;2;
43479;PMS5003;29067;35.492;-97.520;2023-08-06T04:46:05;3;3;
43479;PMS5003;29067;35.492;-97.520;2023-08-06T04:48:33;4;4;
43479;PMS5003;29067;35.492;-97.520;2023-08-06T04:51:03;3;3;
43479;PMS5003;29067;35.492;-97.520;2023-08-06T04:53:31;3;3;
43479;PMS5003;29067;35.492;-97.520;2023-08-06T04:55:59;2;2;
43479;PMS5003;29067;35.492;-97.520;2023-08-06T04:58:28;3;3;
43479;PMS5003;29067;35.492;-97.520;2023-08-06T05:00:56;3;3;
43479;PMS5003;29067;35.492;-97.520;2023-08-06T05:03:24;2;2;
43479;PMS5003;29067;35.492;-97.520;2023-08-06T05:05:53;4;4;
43479;PMS5003;29067;35.492;-97.520;2023-08-06T05:08:21;3;3;
43479;PMS5003;29067;35.492;-97.520;2023-08-06T05:10:51;3;2;
43479;PMS5003;29067;35.492;-97.520;2023-08-06T05:13:20;3;3;
43479;PMS5003;29067;35.492;-97.520;2023-08-06T05:15:54;3;3;
43479;PMS5003;29067;35.492;-97.520;2023-08-06T05:18:23;2;2;
43479;PMS5003;29067;35.492;-97.520;2023-08-06T05:20:52;2;1;
43479;PMS5003;29067;35.492;-97.520;2023-08-06T05:23:20;2;2;
43479;PMS5003;29067;35.492;-97.520;2023-08-06T05:25:48;2;2;
43479;PMS5003;29067;35.492;-97.520;2023-08-06T05:28:17;3;3;
43479;PMS5003;29067;35.492;-97.520;2023-08-06T05:30:45;1;1;
43479;PMS5003;29067;35.492;-97.520;2023-08-06T05:33:18;3;3;
43479;PMS5003;29067;35.492;-97.520;2023-08-06T05:35:50;3;2;
43479;PMS5003;29067;35.492;-97.520;2023-08-06T05:38:18;3;3;
43479;PMS5003;29067;35.492;-97.520;2023-08-06T05:40:46;3;3;
43479;PMS5003;29067;35.492;-97.520;2023-08-06T05:43:21;4;4;
43479;PMS5003;29067;35.492;-97.520;2023-08-06T05:45:49;3;3;
43479;PMS5003;29067;35.492;-97.520;2023-08-06T05:48:23;2;2;
43479;PMS5003;29067;35.492;-97.520;2023-08-06T05:50:56;4;4;
43479;PMS5003;29067;35.492;-97.520;2023-08-06T05:53:30;3;3;
43479;PMS5003;29067;35.492;-97.520;2023-08-06T05:56:04;4;3;
43479;PMS5003;29067;35.492;-97.520;2023-08-06T05:58:32;3;3;
43479;PMS5003;29067;35.492;-97.520;2023-08-06T06:01:00;4;3;
43479;PMS5003;29067;35.492;-97.520;2023-08-06T06:03:28;2;2;
43479;PMS5003;29067;35.492;-97.520;2023-08-06T06:05:57;3;3;
43479;PMS5003;29067;35.492;-97.520;2023-08-06T06:08:27;3;3;
43479;PMS5003;29067;35.492;-97.520;2023-08-06T06:10:55;3;2;
43479;PMS5003;29067;35.492;-97.520;2023-08-06T06:13:24;4;4;
43479;PMS5003;29067;35.492;-97.520;2023-08-06T06:15:54;3;3;
43479;PMS5003;29067;35.492;-97.520;2023-08-06T06:18:21;2;2;
43479;PMS5003;29067;35.492;-97.520;2023-08-06T06:20:55;2;2;
43479;PMS5003;29067;35.492;-97.520;2023-08-06T06:23:27;4;4;
43479;PMS5003;29067;35.492;-97.520;2023-08-06T06:25:55;1;1;
43479;PMS5003;29067;35.492;-97.520;2023-08-06T06:28:23;2;2;
43479;PMS5003;29067;35.492;-97.520;2023-08-06T06:31:01;4;4;
43479;PMS5003;29067;35.492;-97.520;2023-08-06T06:33:30;2;2;
43479;PMS5003;29067;35.492;-97.520;2023-08-06T06:35:58;3;3;
43479;PMS5003;29067;35.492;-97.520;2023-08-06T06:38:26;3;3;
43479;PMS5003;29067;35.492;-97.520;2023-08-06T06:40:55;5;4;
43479;PMS5003;29067;35.492;-97.520;2023-08-06T06:43:24;2;2;
43479;PMS5003;29067;35.492;-97.520;2023-08-06T06:45:53;4;3;
43479;PMS5003;29067;35.492;-97.520;2023-08-06T06:48:22;4;4;
43479;PMS5003;29067;35.492;-97.520;2023-08-06T06:50:51;2;2;
43479;PMS5003;29067;35.492;-97.520;2023-08-06T06:53:18;1;1;
43479;PMS5003;29067;35.492;-97.520;2023-08-06T06:55:47;3;3;
43479;PMS5003;29067;35.492;-97.520;2023-08-06T06:58:16;3;3;
43479;PMS5003;29067;35.492;-97.520;2023-08-06T07:00:46;2;2;
43479;PMS5003;29067;35.492;-97.520;2023-08-06T07:03:15;3;3;
43479;PMS5003;29067;35.492;-97.520;2023-08-06T07:05:45;2;2;
43479;PMS5003;29067;35.492;-97.520;2023-08-06T07:08:13;3;3;
43479;PMS5003;29067;35.492;-97.520;2023-08-06T07:10:41;3;3;
43479;PMS5003;29067;35.492;-97.520;2023-08-06T07:13:10;2;2;
43479;PMS5003;29067;35.492;-97.520;2023-08-06T07:15:38;3;3;
43479;PMS5003;29067;35.492;-97.520;2023-08-06T07:18:06;4;4;
43479;PMS5003;29067;35.492;-97.520;2023-08-06T07:20:34;4;4;
43479;PMS5003;29067;35.492;-97.520;2023-08-06T07:23:07;7;7;
43479;PMS5003;29067;35.492;-97.520;2023-08-06T07:25:34;5;5;
43479;PMS5003;29067;35.492;-97.520;2023-08-06T07:28:08;4;4;
43479;PMS5003;29067;35.492;-97.520;2023-08-06T07:30:38;3;3;
43479;PMS5003;29067;35.492;-97.520;2023-08-06T07:33:07;2;2;
43479;PMS5003;29067;35.492;-97.520;2023-08-06T07:35:36;3;3;
43479;PMS5003;29067;35.492;-97.520;2023-08-06T07:38:04;3;3;
43479;PMS5003;29067;35.492;-97.520;2023-08-06T07:40:33;4;4;
43479;PMS5003;29067;35.492;-97.520;2023-08-06T07:43:04;3;3;
43479;PMS5003;29067;35.492;-97.520;2023-08-06T07:45:33;5;4;
43479;PMS5003;29067;35.492;-97.520;2023-08-06T07:48:03;3;3;
43479;PMS5003;29067;35.492;-97.520;2023-08-06T07:50:32;3;3;
43479;PMS5003;29067;35.492;-97.520;2023-08-06T07:53:01;3;3;
43479;PMS5003;29067;35.492;-97.520;2023-08-06T07:55:39;3;3;
43479;PMS5003;29067;35.492;-97.520;2023-08-06T07:58:07;4;3;
43479;PMS5003;29067;35.492;-97.520;2023-08-06T08:00:35;2;2;
43479;PMS5003;29067;35.492;-97.520;2023-08-06T08:03:09;4;3;
43479;PMS5003;29067;35.492;-97.520;2023-08-06T08:05:37;4;4;
43479;PMS5003;29067;35.492;-97.520;2023-08-06T08:08:06;3;3;
43479;PMS5003;29067;35.492;-97.520;2023-08-06T08:10:38;4;4;
43479;PMS5003;29067;35.492;-97.520;2023-08-06T08:13:07;3;3;
43479;PMS5003;29067;35.492;-97.520;2023-08-06T08:15:35;4;4;
43479;PMS5003;29067;35.492;-97.520;2023-08-06T08:18:03;4;3;
43479;PMS5003;29067;35.492;-97.520;2023-08-06T08:20:32;3;3;
43479;PMS5003;29067;35.492;-97.520;2023-08-06T08:23:09;4;3;
43479;PMS5003;29067;35.492;-97.520;2023-08-06T08:25:41;4;4;
43479;PMS5003;29067;35.492;-97.520;2023-08-06T08:28:10;6;4;
43479;PMS5003;29067;35.492;-97.520;2023-08-06T08:30:43;7;7;
43479;PMS5003;29067;35.492;-97.520;2023-08-06T08:33:11;15;15;
43479;PMS5003;29067;35.492;-97.520;2023-08-06T08:35:39;18;17;
43479;PMS5003;29067;35.492;-97.520;2023-08-06T08:38:09;21;21;
43479;PMS5003;29067;35.492;-97.520;2023-08-06T08:40:38;4;3;
43479;PMS5003;29067;35.492;-97.520;2023-08-06T08:43:22;3;2;
43479;PMS5003;29067;35.492;-97.520;2023-08-06T08:45:50;1;1;
43479;PMS5003;29067;35.492;-97.520;2023-08-06T08:48:30;2;2;
43479;PMS5003;29067;35.492;-97.520;2023-08-06T08:50:59;2;2;
43479;PMS5003;29067;35.492;-97.520;2023-08-06T08:53:32;1;1;
43479;PMS5003;29067;35.492;-97.520;2023-08-06T08:56:06;2;2;
43479;PMS5003;29067;35.492;-97.520;2023-08-06T08:58:34;2;2;
43479;PMS5003;29067;35.492;-97.520;2023-08-06T09:01:03;2;2;
43479;PMS5003;29067;35.492;-97.520;2023-08-06T09:03:33;3;3;
43479;PMS5003;29067;35.492;-97.520;2023-08-06T09:06:03;3;3;
43479;PMS5003;29067;35.492;-97.520;2023-08-06T09:08:34;1;1;
43479;PMS5003;29067;35.492;-97.520;2023-08-06T09:11:03;2;2;
43479;PMS5003;29067;35.492;-97.520;2023-08-06T09:13:37;2;1;
43479;PMS5003;29067;35.492;-97.520;2023-08-06T09:16:05;2;1;
43479;PMS5003;29067;35.492;-97.520;2023-08-06T09:18:39;2;2;
43479;PMS5003;29067;35.492;-97.520;2023-08-06T09:21:08;1;1;
43479;PMS5003;29067;35.492;-97.520;2023-08-06T09:23:42;2;1;
43479;PMS5003;29067;35.492;-97.520;2023-08-06T09:26:11;2;2;
43479;PMS5003;29067;35.492;-97.520;2023-08-06T09:28:39;1;1;
43479;PMS5003;29067;35.492;-97.520;2023-08-06T09:31:08;3;2;
43479;PMS5003;29067;35.492;-97.520;2023-08-06T09:33:41;2;2;
43479;PMS5003;29067;35.492;-97.520;2023-08-06T09:36:09;2;2;
43479;PMS5003;29067;35.492;-97.520;2023-08-06T09:38:38;1;1;
43479;PMS5003;29067;35.492;-97.520;2023-08-06T09:41:07;1;1;
43479;PMS5003;29067;35.492;-97.520;2023-08-06T09:43:43;1;1;
43479;PMS5003;29067;35.492;-97.520;2023-08-06T09:46:12;2;2;
43479;PMS5003;29067;35.492;-97.520;2023-08-06T09:48:40;2;2;
43479;PMS5003;29067;35.492;-97.520;2023-08-06T09:51:11;2;2;
43479;PMS5003;29067;35.492;-97.520;2023-08-06T09:53:41;3;3;
43479;PMS5003;29067;35.492;-97.520;2023-08-06T09:56:15;2;2;
43479;PMS5003;29067;35.492;-97.520;2023-08-06T09:58:45;2;2;
43479;PMS5003;29067;35.492;-97.520;2023-08-06T10:01:16;2;1;
43479;PMS5003;29067;35.492;-97.520;2023-08-06T10:03:45;2;1;
43479;PMS5003;29067;35.492;-97.520;2023-08-06T10:06:16;2;2;
43479;PMS5003;29067;35.492;-97.520;2023-08-06T10:08:50;2;2;
43479;PMS5003;29067;35.492;-97.520;2023-08-06T10:11:19;1;1;
43479;PMS5003;29067;35.492;-97.520;2023-08-06T10:13:52;2;2;
43479;PMS5003;29067;35.492;-97.520;2023-08-06T10:16:34;2;2;
43479;PMS5003;29067;35.492;-97.520;2023-08-06T10:19:04;3;2;
43479;PMS5003;29067;35.492;-97.520;2023-08-06T10:22:06;3;3;
43479;PMS5003;29067;35.492;-97.520;2023-08-06T10:24:45;2;2;
43479;PMS5003;29067;35.492;-97.520;2023-08-06T10:27:16;3;2;
43479;PMS5003;29067;35.492;-97.520;2023-08-06T10:29:48;2;1;
43479;PMS5003;29067;35.492;-97.520;2023-08-06T10:32:16;2;2;
43479;PMS5003;29067;35.492;-97.520;2023-08-06T10:35:00;3;3;
43479;PMS5003;29067;35.492;-97.520;2023-08-06T10:37:35;1;1;
43479;PMS5003;29067;35.492;-97.520;2023-08-06T10:40:11;1;1;
43479;PMS5003;29067;35.492;-97.520;2023-08-06T10:42:47;2;2;
43479;PMS5003;29067;35.492;-97.520;2023-08-06T10:45:16;2;2;
43479;PMS5003;29067;35.492;-97.520;2023-08-06T10:47:45;1;1;
43479;PMS5003;29067;35.492;-97.520;2023-08-06T10:50:14;1;1;
43479;PMS5003;29067;35.492;-97.520;2023-08-06T10:52:49;3;2;
43479;PMS5003;29067;35.492;-97.520;2023-08-06T10:55:24;4;2;
43479;PMS5003;29067;35.492;-97.520;2023-08-06T10:57:59;1;1;
43479;PMS5003;29067;35.492;-97.520;2023-08-06T11:03:00;2;2;
43479;PMS5003;29067;35.492;-97.520;2023-08-06T11:05:29;2;2;
43479;PMS5003;29067;35.492;-97.520;2023-08-06T11:07:58;1;1;
43479;PMS5003;29067;35.492;-97.520;2023-08-06T11:10:25;1;1;
43479;PMS5003;29067;35.492;-97.520;2023-08-06T11:12:54;2;2;
43479;PMS5003;29067;35.492;-97.520;2023-08-06T11:15:27;1;1;
43479;PMS5003;29067;35.492;-97.520;2023-08-06T11:17:55;2;2;
43479;PMS5003;29067;35.492;-97.520;2023-08-06T11:20:23;2;2;
43479;PMS5003;29067;35.492;-97.520;2023-08-06T11:22:52;2;2;
43479;PMS5003;29067;35.492;-97.520;2023-08-06T11:25:20;1;1;
43479;PMS5003;29067;35.492;-97.520;2023-08-06T11:27:48;3;2;
43479;PMS5003;29067;35.492;-97.520;2023-08-06T11:30:16;1;1;
43479;PMS5003;29067;35.492;-97.520;2023-08-06T11:32:45;2;2;
43479;PMS5003;29067;35.492;-97.520;2023-08-06T11:35:14;2;2;
43479;PMS5003;29067;35.492;-97.520;2023-08-06T11:37:43;1;1;
43479;PMS5003;29067;35.492;-97.520;2023-08-06T11:40:13;2;2;
43479;PMS5003;29067;35.492;-97.520;2023-08-06T11:42:42;1;1;
43479;PMS5003;29067;35.492;-97.520;2023-08-06T11:45:10;3;2;
43479;PMS5003;29067;35.492;-97.520;2023-08-06T11:47:39;2;2;
43479;PMS5003;29067;35.492;-97.520;2023-08-06T11:50:07;1;1;
43479;PMS5003;29067;35.492;-97.520;2023-08-06T11:52:38;1;0;
43479;PMS5003;29067;35.492;-97.520;2023-08-06T11:55:08;1;1;
43479;PMS5003;29067;35.492;-97.520;2023-08-06T11:57:36;1;1;
43479;PMS5003;29067;35.492;-97.520;2023-08-06T12:00:05;2;2;
43479;PMS5003;29067;35.492;-97.520;2023-08-06T12:02:36;2;2;
43479;PMS5003;29067;35.492;-97.520;2023-08-06T12:05:10;1;1;
43479;PMS5003;29067;35.492;-97.520;2023-08-06T12:07:40;1;1;
43479;PMS5003;29067;35.492;-97.520;2023-08-06T12:10:10;2;2;
43479;PMS5003;29067;35.492;-97.520;2023-08-06T12:12:38;2;2;
43479;PMS5003;29067;35.492;-97.520;2023-08-06T12:15:07;3;3;
43479;PMS5003;29067;35.492;-97.520;2023-08-06T12:17:36;2;2;
43479;PMS5003;29067;35.492;-97.520;2023-08-06T12:20:05;1;1;
43479;PMS5003;29067;35.492;-97.520;2023-08-06T12:22:35;2;2;
43479;PMS5003;29067;35.492;-97.520;2023-08-06T12:25:03;2;2;
43479;PMS5003;29067;35.492;-97.520;2023-08-06T12:27:33;2;2;
43479;PMS5003;29067;35.492;-97.520;2023-08-06T12:30:02;2;2;
43479;PMS5003;29067;35.492;-97.520;2023-08-06T12:32:31;2;2;
43479;PMS5003;29067;35.492;-97.520;2023-08-06T12:35:00;2;2;
43479;PMS5003;29067;35.492;-97.520;2023-08-06T12:37:28;1;1;
43479;PMS5003;29067;35.492;-97.520;2023-08-06T12:39:57;2;1;
43479;PMS5003;29067;35.492;-97.520;2023-08-06T12:42:24;1;1;
43479;PMS5003;29067;35.492;-97.520;2023-08-06T12:44:52;2;2;
43479;PMS5003;29067;35.492;-97.520;2023-08-06T12:47:20;1;0;
43479;PMS5003;29067;35.492;-97.520;2023-08-06T12:49:50;1;1;
43479;PMS5003;29067;35.492;-97.520;2023-08-06T12:52:17;2;2;
43479;PMS5003;29067;35.492;-97.520;2023-08-06T12:54:45;1;1;
43479;PMS5003;29067;35.492;-97.520;2023-08-06T12:57:18;3;3;
43479;PMS5003;29067;35.492;-97.520;2023-08-06T12:59:47;2;2;
43479;PMS5003;29067;35.492;-97.520;2023-08-06T13:02:15;2;2;
43479;PMS5003;29067;35.492;-97.520;2023-08-06T13:04:43;2;2;
43479;PMS5003;29067;35.492;-97.520;2023-08-06T13:07:12;2;2;
43479;PMS5003;29067;35.492;-97.520;2023-08-06T13:09:40;2;1;
43479;PMS5003;29067;35.492;-97.520;2023-08-06T13:12:08;2;2;
43479;PMS5003;29067;35.492;-97.520;2023-08-06T13:14:41;2;2;
43479;PMS5003;29067;35.492;-97.520;2023-08-06T13:17:13;1;1;
43479;PMS5003;29067;35.492;-97.520;2023-08-06T13:19:41;2;2;
43479;PMS5003;29067;35.492;-97.520;2023-08-06T13:22:09;1;1;
43479;PMS5003;29067;35.492;-97.520;2023-08-06T13:24:48;2;2;
43479;PMS5003;29067;35.492;-97.520;2023-08-06T13:27:17;3;2;
43479;PMS5003;29067;35.492;-97.520;2023-08-06T13:29:51;1;1;
43479;PMS5003;29067;35.492;-97.520;2023-08-06T13:32:20;2;2;
43479;PMS5003;29067;35.492;-97.520;2023-08-06T13:34:48;2;2;
43479;PMS5003;29067;35.492;-97.520;2023-08-06T13:37:16;2;2;
43479;PMS5003;29067;35.492;-97.520;2023-08-06T13:39:44;2;2;
43479;PMS5003;29067;35.492;-97.520;2023-08-06T13:42:12;2;2;
43479;PMS5003;29067;35.492;-97.520;2023-08-06T13:44:41;2;2;
43479;PMS5003;29067;35.492;-97.520;2023-08-06T13:47:09;2;2;
43479;PMS5003;29067;35.492;-97.520;2023-08-06T13:49:43;2954;2952;
43479;PMS5003;29067;35.492;-97.520;2023-08-06T13:52:11;4990;4990;
43479;PMS5003;29067;35.492;-97.520;2023-08-06T13:54:38;4980;4980;
43479;PMS5003;29067;35.492;-97.520;2023-08-06T13:57:06;5000;5000;
43479;PMS5003;29067;35.492;-97.520;2023-08-06T13:59:34;5081;5081;
43479;PMS5003;29067;35.492;-97.520;2023-08-06T14:02:01;5000;5000;
43479;PMS5003;29067;35.492;-97.520;2023-08-06T14:04:29;5000;5000;
43479;PMS5003;29067;35.492;-97.520;2023-08-06T14:06:57;5000;5000;
43479;PMS5003;29067;35.492;-97.520;2023-08-06T14:09:26;14;6;
43479;PMS5003;29067;35.492;-97.520;2023-08-06T14:11:54;4;2;
43479;PMS5003;29067;35.492;-97.520;2023-08-06T14:14:22;1;1;
43479;PMS5003;29067;35.492;-97.520;2023-08-06T14:16:55;2;2;
43479;PMS5003;29067;35.492;-97.520;2023-08-06T14:19:24;3;3;
43479;PMS5003;29067;35.492;-97.520;2023-08-06T14:21:52;2;2;
43479;PMS5003;29067;35.492;-97.520;2023-08-06T14:24:20;2;2;
43479;PMS5003;29067;35.492;-97.520;2023-08-06T14:26:48;3;3;
43479;PMS5003;29067;35.492;-97.520;2023-08-06T14:29:16;2;2;
43479;PMS5003;29067;35.492;-97.520;2023-08-06T14:48:00;2;2;
43479;PMS5003;29067;35.492;-97.520;2023-08-06T14:50:33;5000;5000;
43479;PMS5003;29067;35.492;-97.520;2023-08-06T14:53:01;4990;4990;
43479;PMS5003;29067;35.492;-97.520;2023-08-06T14:55:29;5000;5000;
43479;PMS5003;29067;35.492;-97.520;2023-08-06T14:57:57;5000;5000;
43479;PMS5003;29067;35.492;-97.520;2023-08-06T15:00:27;5000;5000;
43479;PMS5003;29067;35.492;-97.520;2023-08-06T15:02:56;4990;4990;
43479;PMS5003;29067;35.492;-97.520;2023-08-06T15:05:24;5000;5000;
43479;PMS5003;29067;35.492;-97.520;2023-08-06T15:07:52;5000;5000;
43479;PMS5003;29067;35.492;-97.520;2023-08-06T15:10:22;5000;5000;
43479;PMS5003;29067;35.492;-97.520;2023-08-06T15:12:50;5000;5000;
43479;PMS5003;29067;35.492;-97.520;2023-08-06T15:15:18;5000;5000;
43479;PMS5003;29067;35.492;-97.520;2023-08-06T15:17:48;5000;5000;
43479;PMS5003;29067;35.492;-97.520;2023-08-06T15:20:16;4990;4990;
43479;PMS5003;29067;35.492;-97.520;2023-08-06T15:22:50;5000;5000;
43479;PMS5003;29067;35.492;-97.520;2023-08-06T15:25:19;5000;5000;
43479;PMS5003;29067;35.492;-97.520;2023-08-06T15:27:47;5000;5000;
43479;PMS5003;29067;35.492;-97.520;2023-08-06T15:30:30;5000;5000;
43479;PMS5003;29067;35.492;-97.520;2023-08-06T15:32:58;6;2;
43479;PMS5003;29067;35.492;-97.520;2023-08-06T15:35:27;3;2;
43479;PMS5003;29067;35.492;-97.520;2023-08-06T15:37:55;2;2;
43479;PMS5003;29067;35.492;-97.520;2023-08-06T15:40:24;3;3;
43479;PMS5003;29067;35.492;-97.520;2023-08-06T15:42:52;2;2;
43479;PMS5003;29067;35.492;-97.520;2023-08-06T15:45:20;2;2;
43479;PMS5003;29067;35.492;-97.520;2023-08-06T15:47:49;3;3;
43479;PMS5003;29067;35.492;-97.520;2023-08-06T15:50:17;2;2;
43479;PMS5003;29067;35.492;-97.520;2023-08-06T15:52:45;2;2;
43479;PMS5003;29067;35.492;-97.520;2023-08-06T15:55:24;2;2;
43479;PMS5003;29067;35.492;-97.520;2023-08-06T15:57:59;5;5;
43479;PMS5003;29067;35.492;-97.520;2023-08-06T16:00:33;5;5;
43479;PMS5003;29067;35.492;-97.520;2023-08-06T16:03:01;2;2;
43479;PMS5003;29067;35.492;-97.520;2023-08-06T16:05:30;2;2;
43479;PMS5003;29067;35.492;-97.520;2023-08-06T16:07:58;2;2;
43479;PMS5003;29067;35.492;-97.520;2023-08-06T16:10:28;2;2;
43479;PMS5003;29067;35.492;-97.520;2023-08-06T16:12:57;2;2;
43479;PMS5003;29067;35.492;-97.520;2023-08-06T16:15:25;3;3;
43479;PMS5003;29067;35.492;-97.520;2023-08-06T16:17:54;1;1;
43479;PMS5003;29067;35.492;-97.520;2023-08-06T16:20:22;2;2;
43479;PMS5003;29067;35.492;-97.520;2023-08-06T16:22:51;2;2;
43479;PMS5003;29067;35.492;-97.520;2023-08-06T16:25:24;1;1;
43479;PMS5003;29067;35.492;-97.520;2023-08-06T16:27:57;2;2;
43479;PMS5003;29067;35.492;-97.520;2023-08-06T16:30:25;3;3;
43479;PMS5003;29067;35.492;-97.520;2023-08-06T16:32:53;3;3;
43479;PMS5003;29067;35.492;-97.520;2023-08-06T16:35:27;2;2;
43479;PMS5003;29067;35.492;-97.520;2023-08-06T16:37:55;2;2;
43479;PMS5003;29067;35.492;-97.520;2023-08-06T16:40:23;1;1;
43479;PMS5003;29067;35.492;-97.520;2023-08-06T16:42:52;2;2;
43479;PMS5003;29067;35.492;-97.520;2023-08-06T16:45:20;2;2;
43479;PMS5003;29067;35.492;-97.520;2023-08-06T16:47:48;2;2;
43479;PMS5003;29067;35.492;-97.520;2023-08-06T16:50:17;3;3;
43479;PMS5003;29067;35.492;-97.520;2023-08-06T16:52:46;2;2;
43479;PMS5003;29067;35.492;-97.520;2023-08-06T16:55:20;2;2;
43479;PMS5003;29067;35.492;-97.520;2023-08-06T16:57:49;76;76;